createdAt,value
2017-12-31T00:00:01.406Z,5.7
2017-12-31T00:05:01.566Z,5.7
2017-12-31T00:10:01.254Z,5.7
2017-12-31T00:15:02.100Z,5.6
2017-12-31T00:20:01.971Z,5.6
2017-12-31T00:25:01.748Z,5.6
2017-12-31T00:30:01.466Z,5.6
2017-12-31T00:35:01.902Z,5.6
2017-12-31T00:40:02.140Z,5.6
2017-12-31T00:45:01.150Z,5.6
2017-12-31T00:50:02.147Z,5.6
2017-12-31T00:55:01.704Z,5.6
2017-12-31T01:00:01.909Z,5.6
2017-12-31T01:05:01.881Z,5.6
2017-12-31T01:10:01.754Z,5.6
2017-12-31T01:15:02.237Z,5.6
2017-12-31T01:20:01.936Z,5.6
2017-12-31T01:25:01.933Z,5.6
2017-12-31T01:30:01.743Z,5.6
2017-12-31T01:35:02.440Z,5.6
2017-12-31T01:40:02.168Z,5.6
2017-12-31T01:45:01.766Z,5.6
2017-12-31T01:50:01.568Z,5.6
2017-12-31T01:55:02.633Z,5.6
2017-12-31T02:00:01.399Z,6.1
2017-12-31T02:05:01.299Z,6.1
2017-12-31T02:10:02.548Z,6.1
2017-12-31T02:15:01.536Z,6.1
2017-12-31T02:20:02.056Z,6.1
2017-12-31T02:25:01.837Z,6.1
2017-12-31T02:30:02.081Z,6.1
2017-12-31T02:35:01.788Z,6.1
2017-12-31T02:40:01.566Z,6.1
2017-12-31T02:45:01.593Z,6.1
2017-12-31T02:50:02.009Z,6.1
2017-12-31T02:55:01.561Z,6.1
2017-12-31T03:00:02.111Z,6.1
2017-12-31T03:05:01.239Z,6.1
2017-12-31T03:10:02.080Z,6.1
2017-12-31T03:15:01.671Z,6.1
2017-12-31T03:20:01.656Z,6.1
2017-12-31T03:25:02.226Z,6.1
2017-12-31T03:30:02.049Z,6.1
2017-12-31T03:35:01.814Z,6.1
2017-12-31T03:40:01.962Z,6.1
2017-12-31T03:45:02.114Z,6.1
2017-12-31T03:50:01.478Z,6.1
2017-12-31T03:55:01.902Z,6.1
2017-12-31T04:00:01.992Z,5.9
2017-12-31T04:05:02.517Z,5.9
2017-12-31T04:10:01.512Z,5.9
2017-12-31T04:15:02.044Z,5.9
2017-12-31T04:20:01.852Z,5.9
2017-12-31T04:25:02.099Z,5.9
2017-12-31T04:30:01.179Z,5.9
2017-12-31T04:35:01.304Z,5.9
2017-12-31T04:40:01.278Z,5.9
2017-12-31T04:45:01.896Z,5.9
2017-12-31T04:50:01.563Z,5.9
2017-12-31T04:55:01.602Z,5.9
2017-12-31T05:00:02.134Z,5.9
2017-12-31T05:05:01.546Z,5.9
2017-12-31T05:10:01.545Z,5.9
2017-12-31T05:15:01.653Z,5.9
2017-12-31T05:20:02.232Z,5.9
2017-12-31T05:25:01.312Z,5.9
2017-12-31T05:30:01.937Z,5.9
2017-12-31T05:35:01.861Z,5.9
2017-12-31T05:40:02.174Z,5.9
2017-12-31T05:45:01.642Z,5.9
2017-12-31T05:50:01.247Z,5.9
2017-12-31T05:55:01.671Z,5.9
2017-12-31T06:00:02.179Z,5.9
2017-12-31T06:05:01.145Z,5.9
2017-12-31T06:10:02.069Z,5.9
2017-12-31T06:15:01.768Z,5.9
2017-12-31T06:20:02.114Z,5.9
2017-12-31T06:25:01.855Z,5.9
2017-12-31T06:30:01.985Z,5.9
2017-12-31T06:35:01.200Z,5.9
2017-12-31T06:40:01.895Z,5.9
2017-12-31T06:45:01.723Z,5.9
2017-12-31T06:50:01.705Z,5.9
2017-12-31T06:55:01.613Z,4.1
2017-12-31T07:00:01.280Z,4.1
2017-12-31T07:05:01.262Z,4.1
2017-12-31T07:10:01.858Z,4.1
2017-12-31T07:15:01.461Z,4.1
2017-12-31T07:20:01.285Z,4.1
2017-12-31T07:25:01.812Z,4.1
2017-12-31T07:30:01.924Z,4.1
2017-12-31T07:35:02.050Z,4.1
2017-12-31T07:40:02.379Z,4.1
2017-12-31T07:45:01.908Z,4.1
2017-12-31T07:50:01.978Z,4.1
2017-12-31T07:55:01.416Z,4.1
2017-12-31T08:00:01.551Z,4.1
2017-12-31T08:05:01.921Z,4.1
2017-12-31T08:10:02.152Z,4.1
2017-12-31T08:15:01.942Z,4.5
2017-12-31T08:20:01.923Z,4.5
2017-12-31T08:25:01.759Z,4.5
2017-12-31T08:30:01.864Z,4.5
2017-12-31T08:35:02.632Z,4.5
2017-12-31T08:40:01.402Z,4.5
2017-12-31T08:45:01.601Z,4.5
2017-12-31T08:50:01.608Z,4.5
2017-12-31T08:55:01.833Z,4.5
2017-12-31T09:00:01.632Z,4.5
2017-12-31T09:05:01.899Z,5.1
2017-12-31T09:10:02.126Z,5.2
2017-12-31T09:15:01.464Z,5.3
2017-12-31T09:20:01.536Z,5.3
2017-12-31T09:25:01.542Z,5.3
2017-12-31T09:30:02.408Z,5.3
2017-12-31T09:35:01.286Z,5.3
2017-12-31T09:40:01.826Z,5.3
2017-12-31T09:45:01.364Z,5.3
2017-12-31T09:50:02.251Z,5.3
2017-12-31T09:55:01.540Z,5.3
2017-12-31T10:00:02.118Z,5.3
2017-12-31T10:05:01.442Z,5.3
2017-12-31T10:10:02.015Z,5.3
2017-12-31T10:15:01.358Z,6
2017-12-31T10:20:01.649Z,6.1
2017-12-31T10:25:02.054Z,6.1
2017-12-31T10:30:01.496Z,6.2
2017-12-31T10:35:02.122Z,6.2
2017-12-31T10:40:01.924Z,6.2
2017-12-31T10:45:02.309Z,6.2
2017-12-31T10:50:01.228Z,6.2
2017-12-31T10:55:01.316Z,6.2
2017-12-31T11:00:01.540Z,6.2
2017-12-31T11:05:02.006Z,6.2
2017-12-31T11:10:01.802Z,6.2
2017-12-31T11:15:01.754Z,6.2
2017-12-31T11:20:02.241Z,6.2
2017-12-31T11:25:01.312Z,6.2
2017-12-31T11:30:01.690Z,6.2
2017-12-31T11:35:01.213Z,6.2
2017-12-31T11:40:02.368Z,6.2
2017-12-31T11:45:01.212Z,6.2
2017-12-31T11:50:01.212Z,6.2
2017-12-31T11:55:01.911Z,6.2
2017-12-31T12:00:01.857Z,6.2
2017-12-31T12:05:02.180Z,6.2
2017-12-31T12:10:01.249Z,7.6
2017-12-31T12:15:02.467Z,7.7
2017-12-31T12:20:02.069Z,7.7
2017-12-31T12:25:01.427Z,7.7
2017-12-31T12:30:01.792Z,8
2017-12-31T12:35:01.914Z,8
2017-12-31T12:40:01.678Z,8
2017-12-31T12:45:01.469Z,8
2017-12-31T12:50:01.789Z,8
2017-12-31T12:55:01.555Z,8.8
2017-12-31T13:00:01.952Z,8.8
2017-12-31T13:05:02.196Z,8.8
2017-12-31T13:10:02.047Z,8.8
2017-12-31T13:15:01.930Z,9.9
2017-12-31T13:20:01.846Z,10.2
2017-12-31T13:25:01.866Z,10.2
2017-12-31T13:30:01.397Z,10.2
2017-12-31T13:35:01.593Z,10.2
2017-12-31T13:40:01.714Z,10.2
2017-12-31T13:45:01.768Z,10.2
2017-12-31T13:50:01.808Z,10.8
2017-12-31T13:55:03.269Z,10.8
2017-12-31T14:00:01.361Z,11
2017-12-31T14:05:02.124Z,11
2017-12-31T14:10:02.004Z,11.2
2017-12-31T14:15:02.051Z,11.2
2017-12-31T14:20:01.145Z,11.2
2017-12-31T14:25:01.780Z,11.2
2017-12-31T14:30:02.052Z,11.2
2017-12-31T14:35:01.907Z,11.2
2017-12-31T14:40:01.600Z,11.3
2017-12-31T14:45:01.415Z,11.3
2017-12-31T14:50:01.632Z,11.3
2017-12-31T14:55:01.574Z,11.3
2017-12-31T15:00:01.697Z,11.3
2017-12-31T15:05:02.396Z,11.3
2017-12-31T15:10:02.043Z,11.3
2017-12-31T15:15:01.701Z,11.3
2017-12-31T15:20:01.570Z,11.3
2017-12-31T15:25:02.284Z,11.3
2017-12-31T15:30:02.127Z,11.3
2017-12-31T15:35:01.584Z,11.3
2017-12-31T15:40:01.992Z,11.3
2017-12-31T15:45:01.985Z,11.3
2017-12-31T15:50:01.992Z,11.3
2017-12-31T15:55:01.894Z,11.3
2017-12-31T16:00:02.103Z,11.3
2017-12-31T16:05:01.911Z,11.3
2017-12-31T16:10:01.772Z,11.3
2017-12-31T16:15:01.689Z,11.3
2017-12-31T16:20:02.101Z,11.3
2017-12-31T16:25:01.722Z,11.3
2017-12-31T16:30:01.843Z,11.3
2017-12-31T16:35:01.390Z,11.3
2017-12-31T16:40:01.652Z,11.3
2017-12-31T16:45:01.296Z,11.3
2017-12-31T16:50:01.183Z,11.3
2017-12-31T16:55:02.388Z,11.3
2017-12-31T17:00:02.005Z,11.3
2017-12-31T17:05:01.735Z,11.3
2017-12-31T17:10:01.746Z,11.3
2017-12-31T17:15:01.891Z,10.4
2017-12-31T17:20:01.536Z,10.4
2017-12-31T17:25:01.535Z,10.4
2017-12-31T17:30:02.001Z,10.4
2017-12-31T17:35:01.210Z,10.4
2017-12-31T17:40:02.052Z,10.4
2017-12-31T17:45:01.834Z,10.4
2017-12-31T17:50:01.642Z,10.4
2017-12-31T17:55:01.483Z,10.4
2017-12-31T18:00:01.751Z,10.4
2017-12-31T18:05:01.859Z,10.4
2017-12-31T18:10:01.842Z,10.4
2017-12-31T18:15:02.080Z,10.4
2017-12-31T18:20:01.681Z,10.4
2017-12-31T18:25:01.259Z,10.4
2017-12-31T18:30:01.462Z,10.4
2017-12-31T18:35:02.052Z,10.4
2017-12-31T18:40:01.784Z,10.4
2017-12-31T18:45:01.971Z,10.4
2017-12-31T18:50:02.335Z,10.4
2017-12-31T18:55:01.933Z,10.4
2017-12-31T19:00:01.954Z,10.4
2017-12-31T19:05:02.448Z,10.4
2017-12-31T19:10:01.205Z,10.4
2017-12-31T19:15:02.307Z,10.4
2017-12-31T19:20:01.258Z,10.4
2017-12-31T19:25:02.244Z,10.4
2017-12-31T19:30:01.834Z,10.4
2017-12-31T19:35:02.123Z,10.4
2017-12-31T19:40:01.423Z,10.4
2017-12-31T19:45:01.536Z,10.4
2017-12-31T19:50:01.972Z,10.4
2017-12-31T19:55:02.057Z,10.4
2017-12-31T20:00:01.810Z,10.4
2017-12-31T20:05:01.289Z,10.4
2017-12-31T20:10:01.802Z,10.4
2017-12-31T20:15:01.948Z,10.4
2017-12-31T20:20:01.580Z,10.4
2017-12-31T20:25:01.846Z,10.4
2017-12-31T20:30:02.576Z,10.4
2017-12-31T20:35:01.546Z,10.4
2017-12-31T20:40:02.506Z,10.4
2017-12-31T20:45:01.300Z,10.4
2017-12-31T20:50:01.979Z,10.4
2017-12-31T20:55:02.127Z,10.4
2017-12-31T21:00:01.396Z,10.4
2017-12-31T21:05:02.356Z,10.4
2017-12-31T21:10:01.392Z,10.4
2017-12-31T21:15:01.490Z,10.4
2017-12-31T21:20:02.535Z,10.4
2017-12-31T21:25:01.608Z,10.4
2017-12-31T21:30:01.848Z,8.9
2017-12-31T21:35:01.257Z,8.9
2017-12-31T21:40:02.121Z,8.9
2017-12-31T21:45:01.402Z,8.9
2017-12-31T21:50:01.332Z,8.9
2017-12-31T21:55:01.449Z,8.9
2017-12-31T22:00:02.365Z,8.9
2017-12-31T22:05:01.183Z,8.9
2017-12-31T22:10:01.527Z,8.9
2017-12-31T22:15:02.412Z,8.9
2017-12-31T22:20:01.584Z,8.9
2017-12-31T22:25:02.268Z,8.9
2017-12-31T22:30:01.815Z,8.9
2017-12-31T22:35:01.740Z,8.9
2017-12-31T22:40:01.673Z,8.9
2017-12-31T22:45:01.243Z,8.9
2017-12-31T22:50:02.029Z,8.9
2017-12-31T22:55:01.440Z,8.9
2017-12-31T23:00:01.872Z,8.9
2017-12-31T23:05:02.133Z,8.9
2017-12-31T23:10:01.968Z,8.9
2017-12-31T23:15:01.996Z,8.9
2017-12-31T23:20:01.903Z,8.8
2017-12-31T23:25:02.366Z,8.8
2017-12-31T23:30:01.263Z,8.8
2017-12-31T23:35:01.862Z,8.8
2017-12-31T23:40:01.965Z,8.8
2017-12-31T23:45:02.573Z,8.8
2017-12-31T23:50:01.188Z,8.7
2017-12-31T23:55:02.002Z,8.7
